Time;durP1;ratioP1;P1;durP2;ratioP2;P2;SDS_P1;SDS_P2;PMS_P1;PMS_P2;Temp;Humidity;BMP_temperature;BMP_pressure;BME280_temperature;BME280_humidity;BME280_pressure;Samples;Min_cycle;Max_cycle;Signal;HPM_P1;HPM_P2
2023/01/11 00:02:21;;;;;;;;;;;4.00;99.90;;;;;;5167002;27;19957;-70
2023/01/11 00:04:47;;;;;;;;;;;4.00;99.90;;;;;;5166683;27;19982;-69
2023/01/11 00:07:14;;;;;;;;;;;4.00;99.90;;;;;;5082996;27;20128;-70
2023/01/11 00:09:40;;;;;;;;;;;4.00;99.90;;;;;;5060745;28;19952;-71
2023/01/11 00:12:07;;;;;;;;;;;4.00;99.90;;;;;;5080358;22;19959;-68
2023/01/11 00:14:34;;;;;;;;;;;4.00;99.90;;;;;;5089798;28;19962;-68
2023/01/11 00:17:00;;;;;;;;;;;4.10;99.90;;;;;;5102170;28;19963;-70
2023/01/11 00:19:28;;;;;;;;;;;4.10;99.90;;;;;;5104579;28;19950;-69
2023/01/11 00:21:55;;;;;;;;;;;4.10;99.90;;;;;;5105026;28;20171;-68
2023/01/11 00:24:22;;;;;;;;;;;4.00;99.90;;;;;;5104747;28;20153;-69
2023/01/11 00:26:48;;;;;;;;;;;4.00;99.90;;;;;;5103706;28;20203;-68
2023/01/11 00:29:15;;;;;;;;;;;4.00;99.90;;;;;;5104573;28;19951;-69
2023/01/11 00:31:42;;;;;;;;;;;4.00;99.90;;;;;;5104556;28;19984;-68
2023/01/11 00:34:08;;;;;;;;;;;4.00;99.90;;;;;;5103915;28;19959;-67
2023/01/11 00:36:36;;;;;;;;;;;4.00;99.90;;;;;;5103945;28;19982;-69
2023/01/11 00:39:03;;;;;;;;;;;4.10;99.90;;;;;;5103641;28;19987;-68
2023/01/11 00:49:43;;;;;;;;;;;4.00;99.90;;;;;;5104199;28;20226;-67
2023/01/11 00:52:11;;;;;;;;;;;4.00;99.90;;;;;;5103949;28;19926;-68
2023/01/11 00:54:38;;;;;;;;;;;4.00;99.90;;;;;;5104219;28;20000;-69
2023/01/11 00:57:06;;;;;;;;;;;4.00;99.90;;;;;;5103577;28;19920;-68
2023/01/11 00:59:32;;;;;;;;;;;4.00;99.90;;;;;;5104062;28;19962;-68
2023/01/11 01:01:59;;;;;;;;;;;4.00;99.90;;;;;;5103523;28;19966;-68
2023/01/11 01:04:26;;;;;;;;;;;3.90;99.90;;;;;;5104093;28;19940;-68
2023/01/11 01:06:52;;;;;;;;;;;3.90;99.90;;;;;;5103358;28;19983;-68
2023/01/11 01:09:20;;;;;;;;;;;3.90;99.90;;;;;;5103940;28;19986;-68
2023/01/11 01:11:47;;;;;;;;;;;3.90;99.90;;;;;;5083118;28;19948;-68
2023/01/11 01:14:27;;;;;;;;;;;3.90;99.90;;;;;;5091466;28;20188;-68
2023/01/11 01:16:54;;;;;;;;;;;3.80;99.90;;;;;;5102034;28;19995;-67
2023/01/11 01:19:21;;;;;;;;;;;3.90;99.90;;;;;;5103628;28;20229;-68
2023/01/11 01:21:48;;;;;;;;;;;3.90;99.90;;;;;;5103574;28;19920;-69
2023/01/11 01:24:14;;;;;;;;;;;3.90;99.90;;;;;;5103311;28;19948;-69
2023/01/11 01:26:42;;;;;;;;;;;3.90;99.90;;;;;;5103067;28;19952;-68
2023/01/11 01:29:10;;;;;;;;;;;3.90;99.90;;;;;;5103208;28;19978;-68
2023/01/11 01:31:37;;;;;;;;;;;4.00;99.90;;;;;;5103169;28;20119;-68
2023/01/11 01:34:05;;;;;;;;;;;4.00;99.90;;;;;;5103412;28;19920;-68
2023/01/11 01:36:31;;;;;;;;;;;4.00;99.90;;;;;;5102724;28;19920;-69
2023/01/11 01:38:59;;;;;;;;;;;4.00;99.90;;;;;;5102758;28;19940;-68
2023/01/11 01:41:25;;;;;;;;;;;4.10;99.90;;;;;;5102809;28;19927;-69
2023/01/11 01:43:54;;;;;;;;;;;4.10;99.90;;;;;;5103721;28;19955;-69
2023/01/11 01:46:22;;;;;;;;;;;4.10;99.90;;;;;;5102888;28;19988;-68
2023/01/11 01:48:51;;;;;;;;;;;4.10;99.90;;;;;;5103813;28;19987;-68
2023/01/11 01:51:19;;;;;;;;;;;4.10;99.90;;;;;;5103804;28;19932;-68
2023/01/11 01:53:47;;;;;;;;;;;4.10;99.90;;;;;;5103560;28;19988;-69
2023/01/11 01:56:15;;;;;;;;;;;4.10;99.90;;;;;;5102577;28;20258;-68
2023/01/11 01:58:44;;;;;;;;;;;4.20;99.90;;;;;;5103507;28;19920;-69
2023/01/11 02:03:57;;;;;;;;;;;4.20;99.90;;;;;;5092556;28;19928;-68
2023/01/11 02:06:23;;;;;;;;;;;4.20;99.90;;;;;;5102537;28;19920;-68
2023/01/11 02:08:56;;;;;;;;;;;4.20;99.90;;;;;;5103127;28;19971;-69
2023/01/11 02:11:32;;;;;;;;;;;4.20;99.90;;;;;;5103344;28;19963;-69
2023/01/11 02:13:59;;;;;;;;;;;4.20;99.90;;;;;;5083210;28;20090;-69
2023/01/11 02:16:27;;;;;;;;;;;4.30;99.90;;;;;;5090394;28;19987;-69
2023/01/11 02:18:54;;;;;;;;;;;4.30;99.90;;;;;;5103514;28;19920;-69
2023/01/11 02:21:22;;;;;;;;;;;4.40;99.90;;;;;;5103405;28;19946;-67
2023/01/11 02:24:02;;;;;;;;;;;4.40;99.90;;;;;;5084989;28;19920;-67
2023/01/11 02:26:47;;;;;;;;;;;4.40;99.90;;;;;;5085766;28;19920;-69
2023/01/11 02:29:20;;;;;;;;;;;4.30;99.90;;;;;;5086236;28;19976;-69
2023/01/11 02:31:51;;;;;;;;;;;4.40;99.90;;;;;;5086548;28;20154;-68
2023/01/11 02:34:26;;;;;;;;;;;4.40;99.90;;;;;;5095568;28;19983;-68
2023/01/11 02:36:58;;;;;;;;;;;4.40;99.90;;;;;;5106053;28;19920;-69
2023/01/11 02:39:30;;;;;;;;;;;4.50;99.90;;;;;;5106552;28;19920;-68
2023/01/11 02:45:01;;;;;;;;;;;4.60;99.90;;;;;;5106578;28;19922;-69
2023/01/11 02:47:30;;;;;;;;;;;4.60;99.90;;;;;;5106161;28;20246;-69
2023/01/11 02:50:00;;;;;;;;;;;4.60;99.90;;;;;;5106698;28;19920;-69
2023/01/11 02:52:30;;;;;;;;;;;4.60;99.90;;;;;;5106540;28;19959;-68
2023/01/11 02:54:58;;;;;;;;;;;4.60;99.90;;;;;;5106479;28;19920;-69
2023/01/11 02:57:25;;;;;;;;;;;4.60;99.90;;;;;;5105681;28;19920;-69
2023/01/11 02:59:56;;;;;;;;;;;4.60;99.90;;;;;;5106788;28;20003;-68
2023/01/11 03:02:23;;;;;;;;;;;4.60;99.90;;;;;;5106459;28;20204;-68
2023/01/11 03:04:50;;;;;;;;;;;4.60;99.90;;;;;;5106161;28;19986;-69
2023/01/11 03:07:23;;;;;;;;;;;4.70;99.90;;;;;;5105753;28;19920;-68
2023/01/11 03:09:56;;;;;;;;;;;4.60;99.90;;;;;;5106301;28;19920;-69
2023/01/11 03:15:21;;;;;;;;;;;4.70;99.90;;;;;;5105944;28;19938;-68
2023/01/11 03:17:53;;;;;;;;;;;4.80;99.90;;;;;;5105497;28;20179;-69
2023/01/11 03:20:21;;;;;;;;;;;4.80;99.90;;;;;;5105996;28;19920;-69
2023/01/11 03:22:55;;;;;;;;;;;4.70;99.90;;;;;;5105750;28;19966;-69
2023/01/11 03:25:25;;;;;;;;;;;4.80;99.90;;;;;;5105794;28;20200;-69
2023/01/11 03:27:53;;;;;;;;;;;4.80;99.90;;;;;;5104953;28;19982;-68
2023/01/11 03:30:23;;;;;;;;;;;4.80;99.90;;;;;;5105571;28;19987;-68
2023/01/11 03:32:52;;;;;;;;;;;4.90;99.90;;;;;;5085645;28;20003;-69
2023/01/11 03:35:25;;;;;;;;;;;4.90;99.90;;;;;;5084483;28;19991;-69
2023/01/11 03:37:54;;;;;;;;;;;4.90;99.90;;;;;;5084452;28;19924;-69
2023/01/11 03:40:26;;;;;;;;;;;4.90;99.90;;;;;;5084001;28;19983;-69
2023/01/11 03:43:11;;;;;;;;;;;5.00;99.90;;;;;;5085204;28;19943;-69
2023/01/11 03:45:42;;;;;;;;;;;5.00;99.90;;;;;;5084836;28;19927;-67
2023/01/11 03:48:10;;;;;;;;;;;5.00;99.90;;;;;;5084649;28;19952;-68
2023/01/11 03:50:37;;;;;;;;;;;5.10;99.90;;;;;;5084259;28;19992;-69
2023/01/11 03:53:05;;;;;;;;;;;5.00;99.90;;;;;;5084800;28;20183;-67
2023/01/11 03:55:34;;;;;;;;;;;5.00;99.90;;;;;;5084949;28;19920;-68
2023/01/11 03:58:01;;;;;;;;;;;5.10;99.90;;;;;;5098114;28;20114;-69
2023/01/11 04:00:29;;;;;;;;;;;5.10;99.90;;;;;;5105065;28;19951;-68
2023/01/11 04:02:59;;;;;;;;;;;5.10;99.90;;;;;;5105216;28;19920;-68
2023/01/11 04:05:26;;;;;;;;;;;5.10;99.90;;;;;;5105019;28;19965;-68
2023/01/11 04:07:53;;;;;;;;;;;5.00;99.90;;;;;;5104437;28;19920;-69
2023/01/11 04:10:20;;;;;;;;;;;5.00;99.90;;;;;;5104910;28;19986;-68
2023/01/11 04:12:47;;;;;;;;;;;5.00;99.90;;;;;;5104573;28;20177;-68
2023/01/11 04:15:13;;;;;;;;;;;5.00;99.90;;;;;;5105044;28;20150;-69
2023/01/11 04:17:40;;;;;;;;;;;5.00;99.90;;;;;;5103966;28;19982;-69
2023/01/11 04:20:09;;;;;;;;;;;5.00;99.90;;;;;;5104864;28;20271;-69
2023/01/11 04:22:36;;;;;;;;;;;5.00;99.90;;;;;;5104022;28;19991;-69
2023/01/11 04:25:03;;;;;;;;;;;5.00;99.90;;;;;;5104364;28;19978;-68
2023/01/11 04:27:30;;;;;;;;;;;5.00;99.90;;;;;;5103855;28;19931;-68
2023/01/11 04:29:56;;;;;;;;;;;5.00;99.90;;;;;;5104782;28;19927;-69
2023/01/11 04:32:23;;;;;;;;;;;5.00;99.90;;;;;;5104274;28;20227;-69
2023/01/11 04:34:50;;;;;;;;;;;5.00;99.90;;;;;;5104512;28;19986;-69
2023/01/11 04:37:18;;;;;;;;;;;5.00;99.90;;;;;;5103869;28;19919;-68
2023/01/11 04:39:44;;;;;;;;;;;5.00;99.90;;;;;;5104517;28;19927;-69
2023/01/11 04:42:19;;;;;;;;;;;4.90;99.90;;;;;;5104394;28;20143;-67
2023/01/11 04:44:47;;;;;;;;;;;4.90;99.90;;;;;;5104497;28;19951;-69
2023/01/11 04:47:14;;;;;;;;;;;4.80;99.90;;;;;;5103356;28;20158;-69
2023/01/11 04:49:41;;;;;;;;;;;4.80;99.90;;;;;;5104151;28;20282;-69
2023/01/11 04:52:07;;;;;;;;;;;4.80;99.90;;;;;;5104222;28;19926;-69
2023/01/11 04:54:35;;;;;;;;;;;4.80;99.90;;;;;;5104349;28;19958;-69
2023/01/11 04:57:02;;;;;;;;;;;4.80;99.90;;;;;;5103096;28;19959;-68
2023/01/11 04:59:29;;;;;;;;;;;4.80;99.90;;;;;;5104031;28;19992;-68
2023/01/11 05:01:55;;;;;;;;;;;4.90;99.90;;;;;;5103900;28;19958;-69
2023/01/11 05:04:22;;;;;;;;;;;4.80;99.90;;;;;;5104036;28;19955;-69
2023/01/11 05:06:49;;;;;;;;;;;4.80;99.90;;;;;;5103370;28;20164;-68
2023/01/11 05:09:16;;;;;;;;;;;4.80;99.90;;;;;;5103740;28;19920;-69
2023/01/11 05:11:44;;;;;;;;;;;4.80;99.90;;;;;;5103767;28;19927;-69
2023/01/11 05:14:11;;;;;;;;;;;4.80;99.90;;;;;;5103567;28;19975;-68
2023/01/11 05:16:38;;;;;;;;;;;4.80;99.90;;;;;;5102919;28;19971;-68
2023/01/11 05:19:05;;;;;;;;;;;4.80;99.90;;;;;;5103749;28;19924;-68
2023/01/11 05:21:32;;;;;;;;;;;4.70;99.90;;;;;;5103738;28;19983;-69
2023/01/11 05:23:59;;;;;;;;;;;4.70;99.90;;;;;;5103661;28;20250;-68
2023/01/11 05:26:27;;;;;;;;;;;4.70;99.90;;;;;;5103079;28;19928;-69
2023/01/11 05:28:55;;;;;;;;;;;4.70;99.90;;;;;;5103545;28;19939;-69
2023/01/11 05:31:22;;;;;;;;;;;4.60;99.90;;;;;;5103796;28;19991;-68
2023/01/11 05:33:49;;;;;;;;;;;4.60;99.90;;;;;;5103720;28;19987;-68
2023/01/11 05:36:16;;;;;;;;;;;4.60;99.90;;;;;;5056578;28;19948;-68
2023/01/11 05:38:45;;;;;;;;;;;4.70;99.90;;;;;;5103338;28;20286;-69
2023/01/11 05:41:12;;;;;;;;;;;4.70;99.90;;;;;;5097381;28;19959;-69
2023/01/11 05:45:27;;;;;;;;;;;4.70;99.90;;;;;;5082849;28;20119;-69
2023/01/11 05:46:26;;;;;;;;;;;4.60;99.90;;;;;;5082399;28;19924;-69
2023/01/11 05:48:54;;;;;;;;;;;4.70;99.90;;;;;;5083348;28;19955;-69
2023/01/11 05:51:21;;;;;;;;;;;4.70;99.90;;;;;;5082323;28;19927;-67
2023/01/11 05:53:48;;;;;;;;;;;4.70;99.90;;;;;;5083200;28;19987;-69
2023/01/11 05:56:15;;;;;;;;;;;4.70;99.90;;;;;;5082287;28;19927;-69
2023/01/11 05:58:41;;;;;;;;;;;4.70;99.90;;;;;;5084964;28;19967;-69
2023/01/11 06:01:08;;;;;;;;;;;4.80;99.90;;;;;;5087053;28;19956;-69
2023/01/11 06:03:36;;;;;;;;;;;4.80;99.90;;;;;;5085607;28;20263;-69
2023/01/11 06:06:02;;;;;;;;;;;4.80;99.90;;;;;;5085355;28;19988;-69
2023/01/11 06:08:29;;;;;;;;;;;4.80;99.90;;;;;;5086476;28;19940;-69
2023/01/11 06:10:56;;;;;;;;;;;4.80;99.90;;;;;;5086723;28;20247;-69
2023/01/11 06:13:26;;;;;;;;;;;4.90;99.90;;;;;;5086685;28;19927;-68
2023/01/11 06:15:53;;;;;;;;;;;4.90;99.90;;;;;;5085935;28;19952;-69
2023/01/11 06:18:20;;;;;;;;;;;4.90;99.90;;;;;;5086253;28;19921;-69
2023/01/11 06:20:49;;;;;;;;;;;4.90;99.90;;;;;;5089699;28;19926;-69
2023/01/11 06:23:16;;;;;;;;;;;4.90;99.90;;;;;;5106663;28;19962;-69
2023/01/11 06:25:43;;;;;;;;;;;4.90;99.90;;;;;;5106586;28;19928;-68
2023/01/11 06:28:10;;;;;;;;;;;4.90;99.90;;;;;;5106435;28;19955;-71
2023/01/11 06:30:37;;;;;;;;;;;5.00;99.90;;;;;;5090535;28;20107;-68
2023/01/11 06:33:05;;;;;;;;;;;5.10;99.90;;;;;;5085966;28;19920;-67
2023/01/11 06:35:33;;;;;;;;;;;5.10;99.90;;;;;;5086656;28;19952;-69
2023/01/11 06:38:01;;;;;;;;;;;5.10;99.90;;;;;;5085312;28;19920;-69
2023/01/11 06:40:28;;;;;;;;;;;5.10;99.90;;;;;;5086023;28;19995;-68
2023/01/11 06:42:55;;;;;;;;;;;5.10;99.90;;;;;;5104139;28;19920;-69
2023/01/11 06:45:21;;;;;;;;;;;5.10;99.90;;;;;;5105656;28;19995;-68
2023/01/11 06:47:48;;;;;;;;;;;5.10;99.90;;;;;;5105874;28;20259;-69
2023/01/11 06:50:15;;;;;;;;;;;5.10;99.90;;;;;;5106764;28;19987;-69
2023/01/11 06:52:42;;;;;;;;;;;5.10;99.90;;;;;;5106456;28;19951;-68
2023/01/11 06:55:10;;;;;;;;;;;5.10;99.90;;;;;;5106278;28;20198;-68
2023/01/11 06:57:36;;;;;;;;;;;5.10;99.90;;;;;;5105702;28;19991;-68
2023/01/11 07:00:03;;;;;;;;;;;5.10;99.90;;;;;;5106289;28;20275;-68
2023/01/11 07:02:30;;;;;;;;;;;5.00;99.90;;;;;;5104923;28;20226;-68
2023/01/11 07:04:56;;;;;;;;;;;5.00;99.90;;;;;;5105754;28;19987;-69
2023/01/11 07:07:23;;;;;;;;;;;5.10;99.90;;;;;;5105736;28;20210;-69
2023/01/11 07:09:50;;;;;;;;;;;5.00;99.90;;;;;;5104988;28;19955;-69
2023/01/11 07:12:18;;;;;;;;;;;5.00;99.90;;;;;;5105201;28;19955;-69
2023/01/11 07:14:44;;;;;;;;;;;5.10;99.90;;;;;;5106047;28;19983;-69
2023/01/11 07:17:11;;;;;;;;;;;5.00;99.90;;;;;;5105092;28;20227;-69
2023/01/11 07:19:38;;;;;;;;;;;5.10;99.90;;;;;;5105770;28;20275;-68
2023/01/11 07:22:05;;;;;;;;;;;5.10;99.90;;;;;;5104314;28;19995;-69
2023/01/11 07:24:34;;;;;;;;;;;5.10;99.90;;;;;;5103508;28;19920;-69
2023/01/11 07:27:01;;;;;;;;;;;5.10;99.90;;;;;;5105332;28;19956;-69
2023/01/11 07:29:29;;;;;;;;;;;5.10;99.90;;;;;;5105866;28;19920;-69
2023/01/11 07:32:03;;;;;;;;;;;5.10;99.90;;;;;;5104279;28;19955;-69
2023/01/11 07:34:30;;;;;;;;;;;5.10;99.90;;;;;;5105950;28;19935;-69
2023/01/11 07:36:56;;;;;;;;;;;5.10;99.90;;;;;;5105055;28;20119;-70
2023/01/11 07:39:23;;;;;;;;;;;5.10;99.90;;;;;;5105618;28;19920;-69
2023/01/11 07:44:35;;;;;;;;;;;5.10;99.90;;;;;;5105519;28;19959;-69
2023/01/11 07:47:02;;;;;;;;;;;5.20;99.90;;;;;;5104035;28;19987;-69
2023/01/11 07:49:28;;;;;;;;;;;5.20;99.90;;;;;;5104363;28;19955;-69
2023/01/11 07:51:55;;;;;;;;;;;5.30;99.90;;;;;;5105331;28;19959;-69
2023/01/11 07:54:23;;;;;;;;;;;5.30;99.90;;;;;;5104899;28;19919;-69
2023/01/11 07:56:50;;;;;;;;;;;5.30;99.90;;;;;;5104371;28;19920;-69
2023/01/11 07:59:16;;;;;;;;;;;5.40;99.90;;;;;;5104977;28;20208;-68
2023/01/11 08:01:44;;;;;;;;;;;5.40;99.90;;;;;;5105276;28;19987;-69
2023/01/11 08:04:13;;;;;;;;;;;5.40;99.90;;;;;;5105415;28;19920;-69
2023/01/11 08:06:45;;;;;;;;;;;5.40;99.90;;;;;;5102540;28;19993;-68
2023/01/11 08:09:12;;;;;;;;;;;5.50;99.90;;;;;;5105069;28;19987;-69
2023/01/11 08:14:40;;;;;;;;;;;5.50;99.90;;;;;;5080215;28;19916;-69
2023/01/11 08:17:08;;;;;;;;;;;5.50;99.90;;;;;;5103944;28;19920;-69
2023/01/11 08:19:35;;;;;;;;;;;5.60;99.90;;;;;;5104865;28;19986;-70
2023/01/11 08:22:02;;;;;;;;;;;5.60;99.90;;;;;;5103831;28;19920;-69
2023/01/11 08:24:29;;;;;;;;;;;5.60;99.90;;;;;;5102271;28;19995;-69
2023/01/11 08:26:56;;;;;;;;;;;5.60;99.90;;;;;;5104082;28;19988;-69
2023/01/11 08:29:23;;;;;;;;;;;5.70;99.90;;;;;;5104464;28;19920;-68
2023/01/11 08:31:49;;;;;;;;;;;5.70;99.90;;;;;;5104397;28;19966;-69
2023/01/11 08:34:17;;;;;;;;;;;5.70;99.90;;;;;;5104199;28;19955;-69
2023/01/11 08:36:44;;;;;;;;;;;5.70;99.90;;;;;;5103896;28;19920;-69
2023/01/11 08:39:10;;;;;;;;;;;5.70;99.90;;;;;;5104530;28;19920;-69
2023/01/11 08:41:38;;;;;;;;;;;5.80;99.90;;;;;;5104571;28;19987;-69
2023/01/11 08:44:05;;;;;;;;;;;5.80;99.90;;;;;;5104037;28;19924;-69
2023/01/11 08:46:33;;;;;;;;;;;5.80;99.90;;;;;;5103657;28;19927;-69
2023/01/11 08:49:00;;;;;;;;;;;5.90;99.90;;;;;;5104057;28;19920;-69
2023/01/11 08:51:28;;;;;;;;;;;5.90;99.90;;;;;;5103947;28;19991;-73
2023/01/11 08:53:54;;;;;;;;;;;5.90;99.90;;;;;;5104312;28;20007;-69
2023/01/11 08:56:21;;;;;;;;;;;6.00;99.90;;;;;;5103769;28;19955;-70
2023/01/11 08:58:51;;;;;;;;;;;6.00;99.90;;;;;;5101545;28;19920;-70
2023/01/11 09:01:17;;;;;;;;;;;6.00;99.90;;;;;;5104242;28;19927;-69
2023/01/11 09:03:44;;;;;;;;;;;6.10;99.90;;;;;;5103951;28;19939;-69
2023/01/11 09:06:10;;;;;;;;;;;6.10;99.90;;;;;;5103509;28;19920;-68
2023/01/11 09:08:38;;;;;;;;;;;6.20;99.90;;;;;;5104043;28;20231;-69
2023/01/11 09:11:52;;;;;;;;;;;6.20;99.90;;;;;;5104214;28;20406;-69
2023/01/11 09:13:52;;;;;;;;;;;6.30;99.90;;;;;;5103584;28;19926;-69
2023/01/11 09:16:18;;;;;;;;;;;6.30;99.90;;;;;;5103020;28;19974;-69
2023/01/11 09:18:45;;;;;;;;;;;6.40;99.90;;;;;;5104016;28;19959;-69
2023/01/11 09:21:12;;;;;;;;;;;6.50;99.90;;;;;;5103988;28;20101;-69
2023/01/11 09:23:40;;;;;;;;;;;6.60;99.90;;;;;;5103345;28;19920;-69
2023/01/11 09:26:06;;;;;;;;;;;6.60;99.90;;;;;;5103286;28;19995;-69
2023/01/11 09:28:33;;;;;;;;;;;6.70;99.90;;;;;;5101718;28;19970;-68
2023/01/11 09:30:59;;;;;;;;;;;6.70;99.90;;;;;;5102655;28;19927;-69
2023/01/11 09:33:26;;;;;;;;;;;6.80;99.90;;;;;;5104764;28;19983;-69
2023/01/11 09:35:54;;;;;;;;;;;6.90;99.90;;;;;;5090378;28;19920;-70
2023/01/11 09:38:24;;;;;;;;;;;6.90;99.90;;;;;;5087470;28;19960;-69
2023/01/11 09:40:58;;;;;;;;;;;7.00;99.90;;;;;;5087820;28;19920;-69
2023/01/11 09:43:27;;;;;;;;;;;7.10;99.90;;;;;;5105987;28;20111;-70
2023/01/11 09:45:56;;;;;;;;;;;7.20;99.90;;;;;;5100200;28;19920;-69
2023/01/11 09:48:29;;;;;;;;;;;7.30;99.90;;;;;;5107623;28;19970;-70
2023/01/11 09:50:56;;;;;;;;;;;7.30;99.90;;;;;;5107609;28;19920;-67
2023/01/11 09:53:29;;;;;;;;;;;7.40;99.90;;;;;;5107784;28;19920;-70
2023/01/11 09:56:00;;;;;;;;;;;7.40;99.90;;;;;;5107482;28;19926;-69
2023/01/11 09:58:35;;;;;;;;;;;7.50;99.90;;;;;;5107177;28;19998;-70
2023/01/11 10:01:09;;;;;;;;;;;7.50;99.90;;;;;;5107517;28;19920;-70
2023/01/11 10:03:53;;;;;;;;;;;7.50;99.90;;;;;;5093347;28;19920;-70
2023/01/11 10:06:23;;;;;;;;;;;7.50;99.90;;;;;;5074472;28;20109;-69
2023/01/11 10:08:57;;;;;;;;;;;7.60;99.90;;;;;;5086471;28;19959;-69
2023/01/11 10:11:30;;;;;;;;;;;7.50;99.90;;;;;;5086968;28;19927;-69
2023/01/11 10:14:02;;;;;;;;;;;7.60;99.90;;;;;;5086256;28;19959;-70
2023/01/11 10:16:37;;;;;;;;;;;7.60;99.90;;;;;;5096427;28;19927;-68
2023/01/11 10:19:11;;;;;;;;;;;7.70;99.90;;;;;;5106462;28;19987;-69
2023/01/11 10:21:42;;;;;;;;;;;7.60;99.90;;;;;;5106953;28;19928;-69
2023/01/11 10:24:13;;;;;;;;;;;7.60;99.90;;;;;;5106881;28;20227;-69
2023/01/11 10:26:41;;;;;;;;;;;7.70;99.90;;;;;;5105552;28;19920;-70
2023/01/11 10:32:12;;;;;;;;;;;7.80;99.90;;;;;;5076176;28;19916;-70
2023/01/11 10:34:59;;;;;;;;;;;7.80;99.90;;;;;;5099453;28;19927;-70
2023/01/11 10:37:45;;;;;;;;;;;7.80;99.90;;;;;;5106067;28;19927;-70
2023/01/11 10:40:30;;;;;;;;;;;7.90;99.90;;;;;;5107094;28;19951;-69
2023/01/11 10:43:02;;;;;;;;;;;7.90;99.90;;;;;;5106510;28;19920;-69
2023/01/11 10:45:36;;;;;;;;;;;8.00;99.90;;;;;;5106142;28;19987;-69
2023/01/11 10:48:05;;;;;;;;;;;8.00;99.90;;;;;;5106405;28;19943;-70
2023/01/11 10:50:36;;;;;;;;;;;8.10;99.90;;;;;;5096930;28;19992;-69
2023/01/11 10:53:07;;;;;;;;;;;8.10;99.90;;;;;;5086378;28;20164;-70
2023/01/11 10:55:39;;;;;;;;;;;8.10;99.90;;;;;;5085945;28;19958;-69
2023/01/11 10:58:13;;;;;;;;;;;8.10;99.90;;;;;;5085486;28;19924;-67
2023/01/11 11:00:46;;;;;;;;;;;8.20;99.90;;;;;;5086328;28;19987;-70
2023/01/11 11:03:23;;;;;;;;;;;8.20;99.90;;;;;;5091348;28;19920;-69
2023/01/11 11:05:52;;;;;;;;;;;8.20;99.90;;;;;;5105835;28;19955;-69
2023/01/11 11:08:25;;;;;;;;;;;8.20;99.90;;;;;;5105863;28;19983;-70
2023/01/11 11:10:56;;;;;;;;;;;8.20;99.90;;;;;;5106255;28;19920;-69
2023/01/11 11:13:34;;;;;;;;;;;8.20;99.90;;;;;;5105763;28;20346;-70
2023/01/11 11:16:04;;;;;;;;;;;8.20;99.90;;;;;;5105716;28;19934;-69
2023/01/11 11:18:31;;;;;;;;;;;8.20;99.90;;;;;;5105820;28;19991;-69
2023/01/11 11:21:02;;;;;;;;;;;8.20;99.90;;;;;;5102725;28;19974;-70
2023/01/11 11:23:29;;;;;;;;;;;8.20;99.90;;;;;;5099473;28;19958;-70
2023/01/11 11:25:57;;;;;;;;;;;8.30;99.90;;;;;;5096447;28;19962;-69
2023/01/11 11:28:27;;;;;;;;;;;8.20;99.90;;;;;;5084821;28;19926;-69
2023/01/11 11:30:54;;;;;;;;;;;8.20;99.90;;;;;;5084616;28;19926;-69
2023/01/11 11:33:22;;;;;;;;;;;8.30;99.90;;;;;;5085529;28;20150;-69
2023/01/11 11:35:55;;;;;;;;;;;8.30;99.90;;;;;;5087322;28;19984;-69
2023/01/11 11:38:23;;;;;;;;;;;8.30;99.90;;;;;;5105146;28;19920;-69
2023/01/11 11:40:56;;;;;;;;;;;8.30;99.90;;;;;;5104802;28;19920;-70
2023/01/11 11:43:25;;;;;;;;;;;8.30;99.90;;;;;;5105066;28;19979;-67
2023/01/11 11:45:54;;;;;;;;;;;8.30;99.90;;;;;;5104903;28;19928;-69
2023/01/11 11:48:21;;;;;;;;;;;8.30;99.90;;;;;;5102816;28;19920;-69
2023/01/11 11:50:49;;;;;;;;;;;8.20;99.90;;;;;;5105439;28;20136;-69
2023/01/11 11:53:28;;;;;;;;;;;8.30;99.90;;;;;;5105342;28;19958;-70
2023/01/11 11:55:55;;;;;;;;;;;8.30;99.90;;;;;;5101616;28;19987;-70
2023/01/11 11:58:22;;;;;;;;;;;8.30;99.90;;;;;;5103886;28;19985;-70
2023/01/11 12:00:49;;;;;;;;;;;8.40;99.90;;;;;;5104794;28;19926;-70
2023/01/11 12:03:19;;;;;;;;;;;8.30;99.90;;;;;;5105039;28;19920;-70
2023/01/11 12:05:50;;;;;;;;;;;8.40;99.90;;;;;;5104595;28;19927;-69
2023/01/11 12:08:18;;;;;;;;;;;8.40;99.90;;;;;;5102208;28;19920;-69
2023/01/11 12:10:50;;;;;;;;;;;8.50;99.90;;;;;;5105094;28;19920;-69
2023/01/11 12:13:28;;;;;;;;;;;8.50;99.90;;;;;;5104682;28;19984;-69
2023/01/11 12:15:55;;;;;;;;;;;8.50;99.90;;;;;;5104633;28;19987;-69
2023/01/11 12:18:25;;;;;;;;;;;8.60;99.90;;;;;;5104673;28;19984;-69
2023/01/11 12:20:51;;;;;;;;;;;8.60;99.90;;;;;;5104961;28;19924;-69
2023/01/11 12:23:20;;;;;;;;;;;8.60;99.90;;;;;;5104870;28;19983;-70
2023/01/11 12:26:00;;;;;;;;;;;8.60;99.90;;;;;;5103009;28;19920;-69
2023/01/11 12:28:32;;;;;;;;;;;8.60;99.90;;;;;;5103375;28;19983;-69
2023/01/11 12:31:03;;;;;;;;;;;8.60;99.90;;;;;;5104550;28;19952;-69
2023/01/11 12:33:34;;;;;;;;;;;8.60;99.90;;;;;;5104993;28;20093;-70
2023/01/11 12:36:04;;;;;;;;;;;8.60;99.90;;;;;;5104238;28;20111;-70
2023/01/11 12:38:33;;;;;;;;;;;8.60;99.90;;;;;;5104022;28;19959;-68
2023/01/11 12:41:17;;;;;;;;;;;8.60;99.90;;;;;;5104339;28;19987;-70
2023/01/11 12:43:51;;;;;;;;;;;8.60;99.90;;;;;;5104399;28;20179;-69
2023/01/11 12:46:24;;;;;;;;;;;8.70;99.90;;;;;;5102743;28;19982;-69
2023/01/11 12:49:01;;;;;;;;;;;8.70;99.90;;;;;;5104001;28;20188;-69
2023/01/11 12:51:37;;;;;;;;;;;8.70;99.90;;;;;;5104313;28;19920;-69
2023/01/11 12:54:12;;;;;;;;;;;8.60;99.90;;;;;;5104327;28;19924;-70
2023/01/11 12:56:49;;;;;;;;;;;8.70;99.90;;;;;;5103105;28;19926;-70
2023/01/11 12:59:22;;;;;;;;;;;8.70;99.90;;;;;;5104150;28;19947;-69
2023/01/11 13:01:52;;;;;;;;;;;8.70;99.90;;;;;;5104138;28;19920;-70
2023/01/11 13:04:25;;;;;;;;;;;8.70;99.90;;;;;;5103245;28;19952;-70
2023/01/11 13:06:55;;;;;;;;;;;8.70;99.90;;;;;;5103429;28;19920;-70
2023/01/11 13:09:26;;;;;;;;;;;8.70;99.90;;;;;;5104031;28;19987;-70
2023/01/11 13:11:58;;;;;;;;;;;8.70;99.90;;;;;;5103973;28;19992;-70
2023/01/11 13:14:31;;;;;;;;;;;8.70;99.90;;;;;;5103754;28;19927;-70
2023/01/11 13:17:01;;;;;;;;;;;8.70;99.90;;;;;;5102878;28;19983;-70
2023/01/11 13:19:36;;;;;;;;;;;8.80;99.90;;;;;;5103929;28;19959;-69
2023/01/11 13:22:04;;;;;;;;;;;8.80;99.90;;;;;;5103581;28;19920;-70
2023/01/11 13:24:32;;;;;;;;;;;8.80;99.90;;;;;;5103479;28;19955;-70
2023/01/11 13:26:59;;;;;;;;;;;8.80;99.90;;;;;;5102887;28;20277;-70
2023/01/11 13:29:28;;;;;;;;;;;8.90;99.90;;;;;;5103574;28;19983;-70
2023/01/11 13:31:57;;;;;;;;;;;8.90;99.90;;;;;;5102991;28;19920;-69
2023/01/11 13:34:26;;;;;;;;;;;8.90;99.90;;;;;;5103541;28;19983;-69
2023/01/11 13:36:55;;;;;;;;;;;8.90;99.90;;;;;;5102759;28;20171;-68
2023/01/11 13:39:27;;;;;;;;;;;8.90;99.90;;;;;;5103476;28;20152;-68
2023/01/11 13:41:55;;;;;;;;;;;8.90;99.90;;;;;;5083463;28;19930;-69
2023/01/11 13:44:24;;;;;;;;;;;9.00;99.90;;;;;;5083375;28;19987;-69
2023/01/11 13:46:55;;;;;;;;;;;9.00;99.90;;;;;;5080483;28;19987;-69
2023/01/11 13:49:30;;;;;;;;;;;9.00;99.90;;;;;;5083605;28;19991;-69
2023/01/11 13:51:59;;;;;;;;;;;9.00;99.90;;;;;;5098105;28;19927;-69
2023/01/11 13:54:31;;;;;;;;;;;9.10;99.90;;;;;;5091995;28;20172;-69
2023/01/11 13:57:03;;;;;;;;;;;9.10;99.90;;;;;;5089175;28;19920;-70
2023/01/11 13:59:32;;;;;;;;;;;9.10;99.90;;;;;;5103341;28;20019;-69
2023/01/11 14:02:00;;;;;;;;;;;9.10;99.90;;;;;;5103092;28;19920;-70
2023/01/11 14:04:29;;;;;;;;;;;9.10;99.90;;;;;;5100440;28;19983;-70
2023/01/11 14:07:03;;;;;;;;;;;9.10;99.90;;;;;;5081336;28;19963;-70
2023/01/11 14:09:39;;;;;;;;;;;9.10;99.90;;;;;;5092369;28;19932;-70
2023/01/11 14:12:08;;;;;;;;;;;9.10;99.90;;;;;;5093020;28;19952;-71
2023/01/11 14:14:40;;;;;;;;;;;9.10;99.90;;;;;;5092184;28;19926;-70
2023/01/11 14:17:13;;;;;;;;;;;9.10;99.90;;;;;;5100884;28;19920;-71
2023/01/11 14:19:43;;;;;;;;;;;9.10;99.90;;;;;;5104682;28;19920;-71
2023/01/11 14:22:20;;;;;;;;;;;9.00;99.90;;;;;;5107189;28;19983;-70
2023/01/11 14:24:50;;;;;;;;;;;9.00;99.90;;;;;;5106355;28;19995;-71
2023/01/11 14:27:26;;;;;;;;;;;9.10;99.90;;;;;;5095271;28;19920;-70
2023/01/11 14:30:16;;;;;;;;;;;9.10;99.90;;;;;;5104003;28;20211;-70
2023/01/11 14:32:48;;;;;;;;;;;9.10;99.90;;;;;;5105091;28;19920;-70
2023/01/11 14:35:32;;;;;;;;;;;9.00;99.90;;;;;;5106500;28;19920;-70
2023/01/11 14:38:11;;;;;;;;;;;9.00;99.90;;;;;;5105359;28;19926;-70
2023/01/11 14:40:46;;;;;;;;;;;9.00;99.90;;;;;;5106449;28;19928;-70
2023/01/11 14:43:20;;;;;;;;;;;9.00;99.90;;;;;;5106723;28;19926;-70
2023/01/11 14:45:59;;;;;;;;;;;9.00;99.90;;;;;;5106218;28;19920;-69
2023/01/11 14:48:29;;;;;;;;;;;9.00;99.90;;;;;;5106678;28;20192;-70
2023/01/11 14:51:19;;;;;;;;;;;9.00;99.90;;;;;;5086105;28;19924;-70
2023/01/11 14:53:52;;;;;;;;;;;9.00;99.90;;;;;;5087154;28;19928;-69
2023/01/11 14:56:35;;;;;;;;;;;9.00;99.90;;;;;;5105414;28;19962;-70
2023/01/11 14:59:02;;;;;;;;;;;9.00;99.90;;;;;;5106151;28;19955;-70
2023/01/11 15:01:28;;;;;;;;;;;9.00;99.90;;;;;;5085927;28;20085;-69
2023/01/11 15:03:56;;;;;;;;;;;9.00;99.90;;;;;;5094467;28;19925;-69
2023/01/11 15:06:23;;;;;;;;;;;9.00;99.90;;;;;;5088357;28;20221;-70
2023/01/11 15:08:52;;;;;;;;;;;8.90;99.90;;;;;;5086122;28;19920;-69
2023/01/11 15:11:23;;;;;;;;;;;8.90;99.90;;;;;;5085858;28;19928;-70